sensor_id;sensor_type;location;lat;lon;timestamp;temperature;humidity
28336;DHT22;15592;53.656;7.276;2023-02-15T00:01:15;3.30;99.90
28336;DHT22;15592;53.656;7.276;2023-02-15T00:03:40;3.20;99.90
28336;DHT22;15592;53.656;7.276;2023-02-15T00:06:06;3.10;99.90
28336;DHT22;15592;53.656;7.276;2023-02-15T00:08:32;3.10;99.90
28336;DHT22;15592;53.656;7.276;2023-02-15T00:13:30;3.00;99.90
28336;DHT22;15592;53.656;7.276;2023-02-15T00:16:04;2.90;99.90
28336;DHT22;15592;53.656;7.276;2023-02-15T00:18:30;2.80;99.90
28336;DHT22;15592;53.656;7.276;2023-02-15T00:20:56;2.80;99.90
28336;DHT22;15592;53.656;7.276;2023-02-15T00:23:22;2.70;99.90
28336;DHT22;15592;53.656;7.276;2023-02-15T00:25:47;2.60;99.90
28336;DHT22;15592;53.656;7.276;2023-02-15T00:28:13;2.60;99.90
28336;DHT22;15592;53.656;7.276;2023-02-15T00:30:39;2.60;99.90
28336;DHT22;15592;53.656;7.276;2023-02-15T00:33:04;2.60;99.90
28336;DHT22;15592;53.656;7.276;2023-02-15T00:35:30;2.60;99.90
28336;DHT22;15592;53.656;7.276;2023-02-15T00:37:58;2.50;99.90
28336;DHT22;15592;53.656;7.276;2023-02-15T00:40:24;2.40;99.90
28336;DHT22;15592;53.656;7.276;2023-02-15T00:42:49;2.40;99.90
28336;DHT22;15592;53.656;7.276;2023-02-15T00:45:15;2.30;99.90
28336;DHT22;15592;53.656;7.276;2023-02-15T00:47:41;2.30;99.90
28336;DHT22;15592;53.656;7.276;2023-02-15T00:50:06;2.30;99.90
28336;DHT22;15592;53.656;7.276;2023-02-15T00:52:32;2.30;99.90
28336;DHT22;15592;53.656;7.276;2023-02-15T00:54:58;2.20;99.90
28336;DHT22;15592;53.656;7.276;2023-02-15T00:57:23;2.20;99.90
28336;DHT22;15592;53.656;7.276;2023-02-15T00:59:49;2.10;99.90
28336;DHT22;15592;53.656;7.276;2023-02-15T01:02:15;2.00;99.90
28336;DHT22;15592;53.656;7.276;2023-02-15T01:04:40;2.00;99.90
28336;DHT22;15592;53.656;7.276;2023-02-15T01:07:06;1.90;99.90
28336;DHT22;15592;53.656;7.276;2023-02-15T01:09:31;1.80;99.90
28336;DHT22;15592;53.656;7.276;2023-02-15T01:11:57;1.80;99.90
28336;DHT22;15592;53.656;7.276;2023-02-15T01:14:22;1.90;99.90
28336;DHT22;15592;53.656;7.276;2023-02-15T01:16:48;1.90;99.90
28336;DHT22;15592;53.656;7.276;2023-02-15T01:19:14;1.90;99.90
28336;DHT22;15592;53.656;7.276;2023-02-15T01:21:39;2.00;99.90
28336;DHT22;15592;53.656;7.276;2023-02-15T01:24:11;2.00;99.90
28336;DHT22;15592;53.656;7.276;2023-02-15T01:26:37;2.00;99.90
28336;DHT22;15592;53.656;7.276;2023-02-15T01:29:03;2.10;99.90
28336;DHT22;15592;53.656;7.276;2023-02-15T01:31:28;2.10;99.90
28336;DHT22;15592;53.656;7.276;2023-02-15T01:33:54;2.10;99.90
28336;DHT22;15592;53.656;7.276;2023-02-15T01:36:19;2.00;99.90
28336;DHT22;15592;53.656;7.276;2023-02-15T01:38:45;2.10;99.90
28336;DHT22;15592;53.656;7.276;2023-02-15T01:41:11;2.10;99.90
28336;DHT22;15592;53.656;7.276;2023-02-15T01:46:18;2.10;99.90
28336;DHT22;15592;53.656;7.276;2023-02-15T01:48:51;2.00;99.90
28336;DHT22;15592;53.656;7.276;2023-02-15T01:51:20;2.00;99.90
28336;DHT22;15592;53.656;7.276;2023-02-15T01:54:07;1.80;99.90
28336;DHT22;15592;53.656;7.276;2023-02-15T01:56:37;1.70;99.90
28336;DHT22;15592;53.656;7.276;2023-02-15T01:59:09;1.60;99.90
28336;DHT22;15592;53.656;7.276;2023-02-15T02:01:37;1.60;99.90
28336;DHT22;15592;53.656;7.276;2023-02-15T02:04:15;1.50;99.90
28336;DHT22;15592;53.656;7.276;2023-02-15T02:06:45;1.50;99.90
28336;DHT22;15592;53.656;7.276;2023-02-15T02:09:11;1.50;99.90
28336;DHT22;15592;53.656;7.276;2023-02-15T02:11:39;1.40;99.90
28336;DHT22;15592;53.656;7.276;2023-02-15T02:14:06;1.40;99.90
28336;DHT22;15592;53.656;7.276;2023-02-15T02:25:22;1.20;99.90
28336;DHT22;15592;53.656;7.276;2023-02-15T02:34:05;1.20;99.90
28336;DHT22;15592;53.656;7.276;2023-02-15T02:39:55;1.40;99.90
28336;DHT22;15592;53.656;7.276;2023-02-15T02:42:39;1.30;99.90
28336;DHT22;15592;53.656;7.276;2023-02-15T02:48:09;1.40;99.90
28336;DHT22;15592;53.656;7.276;2023-02-15T02:50:35;1.40;99.90
28336;DHT22;15592;53.656;7.276;2023-02-15T02:53:00;1.50;99.90
28336;DHT22;15592;53.656;7.276;2023-02-15T02:58:44;1.50;99.90
28336;DHT22;15592;53.656;7.276;2023-02-15T03:01:27;1.40;99.90
28336;DHT22;15592;53.656;7.276;2023-02-15T03:04:00;1.30;99.90
28336;DHT22;15592;53.656;7.276;2023-02-15T03:06:52;1.20;99.90
28336;DHT22;15592;53.656;7.276;2023-02-15T03:09:34;1.20;99.90
28336;DHT22;15592;53.656;7.276;2023-02-15T03:12:09;1.10;99.90
28336;DHT22;15592;53.656;7.276;2023-02-15T03:14:36;1.10;99.90
28336;DHT22;15592;53.656;7.276;2023-02-15T03:17:02;1.10;99.90
28336;DHT22;15592;53.656;7.276;2023-02-15T03:19:32;1.10;99.90
28336;DHT22;15592;53.656;7.276;2023-02-15T03:22:04;0.90;99.90
28336;DHT22;15592;53.656;7.276;2023-02-15T03:24:51;0.90;99.90
28336;DHT22;15592;53.656;7.276;2023-02-15T03:27:25;0.80;99.90
28336;DHT22;15592;53.656;7.276;2023-02-15T03:29:58;0.70;99.90
28336;DHT22;15592;53.656;7.276;2023-02-15T03:32:25;0.60;99.90
28336;DHT22;15592;53.656;7.276;2023-02-15T03:34:54;0.60;99.90
28336;DHT22;15592;53.656;7.276;2023-02-15T03:40:05;0.50;99.90
28336;DHT22;15592;53.656;7.276;2023-02-15T03:43:01;0.50;99.90
28336;DHT22;15592;53.656;7.276;2023-02-15T03:45:31;0.50;99.90
28336;DHT22;15592;53.656;7.276;2023-02-15T03:48:00;0.50;99.90
28336;DHT22;15592;53.656;7.276;2023-02-15T03:50:30;0.50;99.90
28336;DHT22;15592;53.656;7.276;2023-02-15T03:53:18;0.50;99.90
28336;DHT22;15592;53.656;7.276;2023-02-15T03:55:50;0.50;99.90
28336;DHT22;15592;53.656;7.276;2023-02-15T03:58:18;0.40;99.90
28336;DHT22;15592;53.656;7.276;2023-02-15T04:01:16;0.50;99.90
28336;DHT22;15592;53.656;7.276;2023-02-15T04:04:20;0.50;99.90
28336;DHT22;15592;53.656;7.276;2023-02-15T04:06:46;0.50;99.90
28336;DHT22;15592;53.656;7.276;2023-02-15T04:09:12;0.50;99.90
28336;DHT22;15592;53.656;7.276;2023-02-15T04:11:56;0.50;99.90
28336;DHT22;15592;53.656;7.276;2023-02-15T04:14:22;0.50;99.90
28336;DHT22;15592;53.656;7.276;2023-02-15T04:17:07;0.50;99.90
28336;DHT22;15592;53.656;7.276;2023-02-15T04:19:33;0.50;99.90
28336;DHT22;15592;53.656;7.276;2023-02-15T04:22:18;0.50;99.90
28336;DHT22;15592;53.656;7.276;2023-02-15T04:25:02;0.40;99.90
28336;DHT22;15592;53.656;7.276;2023-02-15T04:27:48;0.40;99.90
28336;DHT22;15592;53.656;7.276;2023-02-15T04:30:15;0.40;99.90
28336;DHT22;15592;53.656;7.276;2023-02-15T04:32:41;0.40;99.90
28336;DHT22;15592;53.656;7.276;2023-02-15T04:35:07;0.30;99.90
28336;DHT22;15592;53.656;7.276;2023-02-15T04:37:33;0.40;99.90
28336;DHT22;15592;53.656;7.276;2023-02-15T04:39:59;0.40;99.90
28336;DHT22;15592;53.656;7.276;2023-02-15T04:42:25;0.40;99.90
28336;DHT22;15592;53.656;7.276;2023-02-15T04:44:51;0.40;99.90
28336;DHT22;15592;53.656;7.276;2023-02-15T04:47:17;0.40;99.90
28336;DHT22;15592;53.656;7.276;2023-02-15T04:49:43;0.40;99.90
28336;DHT22;15592;53.656;7.276;2023-02-15T04:52:09;0.50;99.90
28336;DHT22;15592;53.656;7.276;2023-02-15T04:54:34;0.40;99.90
28336;DHT22;15592;53.656;7.276;2023-02-15T04:57:00;0.40;99.90
28336;DHT22;15592;53.656;7.276;2023-02-15T04:59:26;0.40;99.90
28336;DHT22;15592;53.656;7.276;2023-02-15T05:01:52;0.40;99.90
28336;DHT22;15592;53.656;7.276;2023-02-15T05:04:17;0.40;99.90
28336;DHT22;15592;53.656;7.276;2023-02-15T05:06:43;0.40;99.90
28336;DHT22;15592;53.656;7.276;2023-02-15T05:09:09;0.40;99.90
28336;DHT22;15592;53.656;7.276;2023-02-15T05:11:35;0.40;99.90
28336;DHT22;15592;53.656;7.276;2023-02-15T05:14:01;0.40;99.90
28336;DHT22;15592;53.656;7.276;2023-02-15T05:16:26;0.40;99.90
28336;DHT22;15592;53.656;7.276;2023-02-15T05:18:53;0.40;99.90
28336;DHT22;15592;53.656;7.276;2023-02-15T05:21:18;0.40;99.90
28336;DHT22;15592;53.656;7.276;2023-02-15T05:23:44;0.40;99.90
28336;DHT22;15592;53.656;7.276;2023-02-15T05:26:18;0.40;99.90
28336;DHT22;15592;53.656;7.276;2023-02-15T05:29:03;0.40;99.90
28336;DHT22;15592;53.656;7.276;2023-02-15T05:31:30;0.40;99.90
28336;DHT22;15592;53.656;7.276;2023-02-15T05:33:55;0.40;99.90
28336;DHT22;15592;53.656;7.276;2023-02-15T05:36:21;0.50;99.90
28336;DHT22;15592;53.656;7.276;2023-02-15T05:38:47;0.50;99.90
28336;DHT22;15592;53.656;7.276;2023-02-15T05:41:12;0.50;99.90
28336;DHT22;15592;53.656;7.276;2023-02-15T05:43:38;0.50;99.90
28336;DHT22;15592;53.656;7.276;2023-02-15T05:46:05;0.60;99.90
28336;DHT22;15592;53.656;7.276;2023-02-15T05:48:30;0.60;99.90
28336;DHT22;15592;53.656;7.276;2023-02-15T05:51:01;0.60;99.90
28336;DHT22;15592;53.656;7.276;2023-02-15T05:53:28;0.70;99.90
28336;DHT22;15592;53.656;7.276;2023-02-15T05:55:54;0.70;99.90
28336;DHT22;15592;53.656;7.276;2023-02-15T05:58:25;0.60;99.90
28336;DHT22;15592;53.656;7.276;2023-02-15T06:00:51;0.70;99.90
28336;DHT22;15592;53.656;7.276;2023-02-15T06:03:16;0.70;99.90
28336;DHT22;15592;53.656;7.276;2023-02-15T06:05:42;0.80;99.90
28336;DHT22;15592;53.656;7.276;2023-02-15T06:08:08;0.80;99.90
28336;DHT22;15592;53.656;7.276;2023-02-15T06:10:33;0.80;99.90
28336;DHT22;15592;53.656;7.276;2023-02-15T06:12:59;0.80;99.90
28336;DHT22;15592;53.656;7.276;2023-02-15T06:15:24;0.70;99.90
28336;DHT22;15592;53.656;7.276;2023-02-15T06:17:50;0.70;99.90
28336;DHT22;15592;53.656;7.276;2023-02-15T06:20:15;0.70;99.90
28336;DHT22;15592;53.656;7.276;2023-02-15T06:22:41;0.70;99.90
28336;DHT22;15592;53.656;7.276;2023-02-15T06:25:07;0.70;99.90
28336;DHT22;15592;53.656;7.276;2023-02-15T06:27:35;0.70;99.90
28336;DHT22;15592;53.656;7.276;2023-02-15T06:30:01;0.80;99.90
28336;DHT22;15592;53.656;7.276;2023-02-15T06:32:26;0.80;99.90
28336;DHT22;15592;53.656;7.276;2023-02-15T06:34:52;0.80;99.90
28336;DHT22;15592;53.656;7.276;2023-02-15T06:37:17;0.80;99.90
28336;DHT22;15592;53.656;7.276;2023-02-15T06:39:43;0.80;99.90
28336;DHT22;15592;53.656;7.276;2023-02-15T06:42:09;0.80;99.90
28336;DHT22;15592;53.656;7.276;2023-02-15T06:44:35;0.80;99.90
28336;DHT22;15592;53.656;7.276;2023-02-15T06:47:00;0.80;99.90
28336;DHT22;15592;53.656;7.276;2023-02-15T06:49:26;0.80;99.90
28336;DHT22;15592;53.656;7.276;2023-02-15T06:51:52;0.80;99.90
28336;DHT22;15592;53.656;7.276;2023-02-15T06:54:17;0.80;99.90
28336;DHT22;15592;53.656;7.276;2023-02-15T06:56:43;0.80;99.90
28336;DHT22;15592;53.656;7.276;2023-02-15T06:59:09;0.80;99.90
28336;DHT22;15592;53.656;7.276;2023-02-15T07:01:34;0.80;99.90
28336;DHT22;15592;53.656;7.276;2023-02-15T07:04:02;0.80;99.90
28336;DHT22;15592;53.656;7.276;2023-02-15T07:06:31;0.80;99.90
28336;DHT22;15592;53.656;7.276;2023-02-15T07:08:57;0.80;99.90
28336;DHT22;15592;53.656;7.276;2023-02-15T07:11:22;0.80;99.90
28336;DHT22;15592;53.656;7.276;2023-02-15T07:14:06;0.80;99.90
28336;DHT22;15592;53.656;7.276;2023-02-15T07:16:32;0.80;99.90
28336;DHT22;15592;53.656;7.276;2023-02-15T07:18:58;0.80;99.90
28336;DHT22;15592;53.656;7.276;2023-02-15T07:21:23;0.80;99.90
28336;DHT22;15592;53.656;7.276;2023-02-15T07:23:49;0.90;99.90
28336;DHT22;15592;53.656;7.276;2023-02-15T07:26:14;0.90;99.90
28336;DHT22;15592;53.656;7.276;2023-02-15T07:28:40;0.90;99.90
28336;DHT22;15592;53.656;7.276;2023-02-15T07:31:05;1.00;99.90
28336;DHT22;15592;53.656;7.276;2023-02-15T07:33:32;1.00;99.90
28336;DHT22;15592;53.656;7.276;2023-02-15T07:35:59;1.00;99.90
28336;DHT22;15592;53.656;7.276;2023-02-15T07:38:29;1.00;99.90
28336;DHT22;15592;53.656;7.276;2023-02-15T07:41:06;1.00;99.90
28336;DHT22;15592;53.656;7.276;2023-02-15T07:43:35;1.00;99.90
28336;DHT22;15592;53.656;7.276;2023-02-15T07:46:02;1.10;99.90
28336;DHT22;15592;53.656;7.276;2023-02-15T07:48:27;1.10;99.90
28336;DHT22;15592;53.656;7.276;2023-02-15T07:50:53;1.10;99.90
28336;DHT22;15592;53.656;7.276;2023-02-15T07:53:19;1.20;99.90
28336;DHT22;15592;53.656;7.276;2023-02-15T07:55:44;1.20;99.90
28336;DHT22;15592;53.656;7.276;2023-02-15T07:58:10;1.20;99.90
28336;DHT22;15592;53.656;7.276;2023-02-15T08:00:35;1.30;99.90
28336;DHT22;15592;53.656;7.276;2023-02-15T08:03:25;1.30;99.90
28336;DHT22;15592;53.656;7.276;2023-02-15T08:05:56;1.30;99.90
28336;DHT22;15592;53.656;7.276;2023-02-15T08:08:21;1.40;99.90
28336;DHT22;15592;53.656;7.276;2023-02-15T08:14:12;1.50;99.90
28336;DHT22;15592;53.656;7.276;2023-02-15T08:16:42;1.50;99.90
28336;DHT22;15592;53.656;7.276;2023-02-15T08:19:13;1.60;99.90
28336;DHT22;15592;53.656;7.276;2023-02-15T08:21:42;1.70;99.90
28336;DHT22;15592;53.656;7.276;2023-02-15T08:24:10;1.70;99.90
28336;DHT22;15592;53.656;7.276;2023-02-15T08:26:36;1.70;99.90
28336;DHT22;15592;53.656;7.276;2023-02-15T08:29:02;1.80;99.90
28336;DHT22;15592;53.656;7.276;2023-02-15T08:31:28;1.90;99.90
28336;DHT22;15592;53.656;7.276;2023-02-15T08:33:55;2.00;99.90
28336;DHT22;15592;53.656;7.276;2023-02-15T08:36:23;2.00;99.90
28336;DHT22;15592;53.656;7.276;2023-02-15T08:38:49;2.10;99.90
28336;DHT22;15592;53.656;7.276;2023-02-15T08:43:44;2.20;99.90
28336;DHT22;15592;53.656;7.276;2023-02-15T08:46:11;2.30;99.90
28336;DHT22;15592;53.656;7.276;2023-02-15T08:48:37;2.40;99.90
28336;DHT22;15592;53.656;7.276;2023-02-15T08:51:14;2.40;99.90
28336;DHT22;15592;53.656;7.276;2023-02-15T08:53:43;2.50;99.90
28336;DHT22;15592;53.656;7.276;2023-02-15T08:56:10;2.60;99.90
28336;DHT22;15592;53.656;7.276;2023-02-15T08:58:37;2.70;99.90
28336;DHT22;15592;53.656;7.276;2023-02-15T09:03:35;2.80;99.90
28336;DHT22;15592;53.656;7.276;2023-02-15T09:06:01;2.90;99.90
28336;DHT22;15592;53.656;7.276;2023-02-15T09:08:27;2.90;99.90
28336;DHT22;15592;53.656;7.276;2023-02-15T09:10:54;2.90;99.90
28336;DHT22;15592;53.656;7.276;2023-02-15T09:13:20;3.00;99.90
28336;DHT22;15592;53.656;7.276;2023-02-15T09:15:46;3.00;99.90
28336;DHT22;15592;53.656;7.276;2023-02-15T09:18:12;3.10;99.90
28336;DHT22;15592;53.656;7.276;2023-02-15T09:20:43;3.10;99.90
28336;DHT22;15592;53.656;7.276;2023-02-15T09:23:09;3.20;99.90
28336;DHT22;15592;53.656;7.276;2023-02-15T09:25:35;3.30;99.90
28336;DHT22;15592;53.656;7.276;2023-02-15T09:28:00;3.40;99.90
28336;DHT22;15592;53.656;7.276;2023-02-15T09:30:26;3.50;99.90
28336;DHT22;15592;53.656;7.276;2023-02-15T09:32:51;3.50;99.90
28336;DHT22;15592;53.656;7.276;2023-02-15T09:35:17;3.60;99.90
28336;DHT22;15592;53.656;7.276;2023-02-15T09:37:42;3.70;99.90
28336;DHT22;15592;53.656;7.276;2023-02-15T09:40:08;3.80;99.90
28336;DHT22;15592;53.656;7.276;2023-02-15T09:45:23;4.10;99.90
28336;DHT22;15592;53.656;7.276;2023-02-15T09:53:52;4.50;99.90
28336;DHT22;15592;53.656;7.276;2023-02-15T09:56:31;4.60;99.90
28336;DHT22;15592;53.656;7.276;2023-02-15T09:59:18;4.70;99.90
28336;DHT22;15592;53.656;7.276;2023-02-15T10:07:38;4.90;99.90
28336;DHT22;15592;53.656;7.276;2023-02-15T10:10:24;5.00;99.90
28336;DHT22;15592;53.656;7.276;2023-02-15T10:15:34;5.20;99.90
28336;DHT22;15592;53.656;7.276;2023-02-15T10:23:45;5.50;99.90
28336;DHT22;15592;53.656;7.276;2023-02-15T10:26:19;5.60;99.90
28336;DHT22;15592;53.656;7.276;2023-02-15T10:28:48;5.70;99.90
28336;DHT22;15592;53.656;7.276;2023-02-15T10:31:23;5.80;99.90
28336;DHT22;15592;53.656;7.276;2023-02-15T10:42:25;6.10;99.90
28336;DHT22;15592;53.656;7.276;2023-02-15T10:45:21;6.30;99.90
28336;DHT22;15592;53.656;7.276;2023-02-15T10:53:10;6.60;99.90
28336;DHT22;15592;53.656;7.276;2023-02-15T10:56:03;6.70;99.90
28336;DHT22;15592;53.656;7.276;2023-02-15T11:01:42;6.90;99.90
28336;DHT22;15592;53.656;7.276;2023-02-15T11:07:31;7.10;99.90
28336;DHT22;15592;53.656;7.276;2023-02-15T11:12:40;7.40;99.90
28336;DHT22;15592;53.656;7.276;2023-02-15T11:20:50;7.50;99.90
28336;DHT22;15592;53.656;7.276;2023-02-15T11:23:18;7.60;99.90
28336;DHT22;15592;53.656;7.276;2023-02-15T11:26:06;7.70;99.90
28336;DHT22;15592;53.656;7.276;2023-02-15T11:28:45;7.80;99.90
28336;DHT22;15592;53.656;7.276;2023-02-15T11:31:37;7.80;99.90
28336;DHT22;15592;53.656;7.276;2023-02-15T11:34:10;7.90;99.90
28336;DHT22;15592;53.656;7.276;2023-02-15T11:36:40;8.00;99.90
28336;DHT22;15592;53.656;7.276;2023-02-15T11:39:12;8.00;99.90
28336;DHT22;15592;53.656;7.276;2023-02-15T11:41:43;8.10;99.90
28336;DHT22;15592;53.656;7.276;2023-02-15T11:46:49;8.30;99.90
28336;DHT22;15592;53.656;7.276;2023-02-15T11:49:27;8.30;99.90
28336;DHT22;15592;53.656;7.276;2023-02-15T11:51:55;8.40;99.90
28336;DHT22;15592;53.656;7.276;2023-02-15T11:54:26;8.50;99.90
28336;DHT22;15592;53.656;7.276;2023-02-15T11:56:56;8.50;99.90
28336;DHT22;15592;53.656;7.276;2023-02-15T11:59:34;8.60;99.90
28336;DHT22;15592;53.656;7.276;2023-02-15T12:02:02;8.60;99.90
28336;DHT22;15592;53.656;7.276;2023-02-15T12:04:36;8.60;99.90
28336;DHT22;15592;53.656;7.276;2023-02-15T12:07:16;8.70;99.90
28336;DHT22;15592;53.656;7.276;2023-02-15T12:12:37;8.80;99.90
28336;DHT22;15592;53.656;7.276;2023-02-15T12:15:09;8.90;99.90
28336;DHT22;15592;53.656;7.276;2023-02-15T12:17:39;9.00;99.90
28336;DHT22;15592;53.656;7.276;2023-02-15T12:22:58;9.00;99.90
28336;DHT22;15592;53.656;7.276;2023-02-15T12:27:53;8.90;99.90
28336;DHT22;15592;53.656;7.276;2023-02-15T12:30:23;8.90;99.90
28336;DHT22;15592;53.656;7.276;2023-02-15T12:32:53;8.80;99.90
28336;DHT22;15592;53.656;7.276;2023-02-15T12:38:03;8.80;99.90
28336;DHT22;15592;53.656;7.276;2023-02-15T12:40:31;8.70;99.90
28336;DHT22;15592;53.656;7.276;2023-02-15T12:42:58;8.80;99.90
28336;DHT22;15592;53.656;7.276;2023-02-15T12:45:32;8.80;99.90
28336;DHT22;15592;53.656;7.276;2023-02-15T12:50:45;8.80;99.90
28336;DHT22;15592;53.656;7.276;2023-02-15T12:53:17;8.90;99.90
28336;DHT22;15592;53.656;7.276;2023-02-15T12:55:59;8.90;99.90
28336;DHT22;15592;53.656;7.276;2023-02-15T12:58:30;8.90;99.90
28336;DHT22;15592;53.656;7.276;2023-02-15T13:01:19;9.00;99.90
28336;DHT22;15592;53.656;7.276;2023-02-15T13:06:17;9.10;99.90
28336;DHT22;15592;53.656;7.276;2023-02-15T13:08:49;9.20;99.90
28336;DHT22;15592;53.656;7.276;2023-02-15T13:11:28;9.20;99.90
28336;DHT22;15592;53.656;7.276;2023-02-15T13:14:01;9.30;99.90
28336;DHT22;15592;53.656;7.276;2023-02-15T13:16:37;9.20;99.90
28336;DHT22;15592;53.656;7.276;2023-02-15T13:19:15;9.30;99.90
28336;DHT22;15592;53.656;7.276;2023-02-15T13:21:47;9.20;99.90
28336;DHT22;15592;53.656;7.276;2023-02-15T13:24:25;9.20;99.90
28336;DHT22;15592;53.656;7.276;2023-02-15T13:26:54;9.10;99.90
28336;DHT22;15592;53.656;7.276;2023-02-15T13:29:28;9.10;99.90
28336;DHT22;15592;53.656;7.276;2023-02-15T13:31:57;9.10;99.90
28336;DHT22;15592;53.656;7.276;2023-02-15T13:34:32;9.10;99.90
28336;DHT22;15592;53.656;7.276;2023-02-15T13:42:25;9.30;99.90
28336;DHT22;15592;53.656;7.276;2023-02-15T13:56:00;9.20;99.90
28336;DHT22;15592;53.656;7.276;2023-02-15T14:00:57;9.10;99.90
28336;DHT22;15592;53.656;7.276;2023-02-15T14:22:36;9.00;99.90
28336;DHT22;15592;53.656;7.276;2023-02-15T14:28:13;9.00;99.90
28336;DHT22;15592;53.656;7.276;2023-02-15T14:30:44;9.00;99.90
28336;DHT22;15592;53.656;7.276;2023-02-15T14:35:40;9.00;99.90
28336;DHT22;15592;53.656;7.276;2023-02-15T14:49:23;9.00;99.90
28336;DHT22;15592;53.656;7.276;2023-02-15T15:04:35;8.90;99.90
28336;DHT22;15592;53.656;7.276;2023-02-15T15:09:39;8.90;99.90
28336;DHT22;15592;53.656;7.276;2023-02-15T15:15:01;8.90;99.90
28336;DHT22;15592;53.656;7.276;2023-02-15T15:37:23;8.70;99.90
28336;DHT22;15592;53.656;7.276;2023-02-15T15:40:00;8.60;99.90
28336;DHT22;15592;53.656;7.276;2023-02-15T15:46:06;8.50;99.90
28336;DHT22;15592;53.656;7.276;2023-02-15T15:48:39;8.50;99.90
28336;DHT22;15592;53.656;7.276;2023-02-15T15:51:32;8.40;99.90
28336;DHT22;15592;53.656;7.276;2023-02-15T15:53:59;8.40;99.90
28336;DHT22;15592;53.656;7.276;2023-02-15T15:56:34;8.40;99.90
28336;DHT22;15592;53.656;7.276;2023-02-15T15:59:06;8.30;99.90
28336;DHT22;15592;53.656;7.276;2023-02-15T16:01:42;8.30;99.90
28336;DHT22;15592;53.656;7.276;2023-02-15T16:04:31;8.20;99.90
28336;DHT22;15592;53.656;7.276;2023-02-15T16:07:05;8.20;99.90
28336;DHT22;15592;53.656;7.276;2023-02-15T16:09:38;8.10;99.90
28336;DHT22;15592;53.656;7.276;2023-02-15T16:12:05;8.00;99.90
28336;DHT22;15592;53.656;7.276;2023-02-15T16:14:40;8.00;99.90
28336;DHT22;15592;53.656;7.276;2023-02-15T16:17:13;7.90;99.90
28336;DHT22;15592;53.656;7.276;2023-02-15T16:19:42;7.90;99.90
28336;DHT22;15592;53.656;7.276;2023-02-15T16:22:15;7.80;99.90
28336;DHT22;15592;53.656;7.276;2023-02-15T16:29:44;7.70;99.90
28336;DHT22;15592;53.656;7.276;2023-02-15T16:32:19;7.70;99.90
28336;DHT22;15592;53.656;7.276;2023-02-15T16:34:57;7.70;99.90
28336;DHT22;15592;53.656;7.276;2023-02-15T16:37:25;7.70;99.90
28336;DHT22;15592;53.656;7.276;2023-02-15T16:39:56;7.70;99.90
28336;DHT22;15592;53.656;7.276;2023-02-15T16:42:22;7.60;99.90
28336;DHT22;15592;53.656;7.276;2023-02-15T16:47:25;7.60;99.90
28336;DHT22;15592;53.656;7.276;2023-02-15T16:49:53;7.60;99.90
28336;DHT22;15592;53.656;7.276;2023-02-15T16:52:22;7.60;99.90
28336;DHT22;15592;53.656;7.276;2023-02-15T16:55:00;7.50;99.90
28336;DHT22;15592;53.656;7.276;2023-02-15T16:57:29;7.50;99.90
28336;DHT22;15592;53.656;7.276;2023-02-15T17:00:07;7.50;99.90
28336;DHT22;15592;53.656;7.276;2023-02-15T17:02:34;7.40;99.90
28336;DHT22;15592;53.656;7.276;2023-02-15T17:05:14;7.40;99.90
28336;DHT22;15592;53.656;7.276;2023-02-15T17:07:50;7.40;99.90
28336;DHT22;15592;53.656;7.276;2023-02-15T17:12:54;7.30;99.90
28336;DHT22;15592;53.656;7.276;2023-02-15T17:15:37;7.30;99.90
28336;DHT22;15592;53.656;7.276;2023-02-15T17:18:06;7.30;99.90
28336;DHT22;15592;53.656;7.276;2023-02-15T17:20:33;7.30;99.90
28336;DHT22;15592;53.656;7.276;2023-02-15T17:22:59;7.20;99.90
28336;DHT22;15592;53.656;7.276;2023-02-15T17:25:36;7.20;99.90
28336;DHT22;15592;53.656;7.276;2023-02-15T17:28:02;7.20;99.90
28336;DHT22;15592;53.656;7.276;2023-02-15T17:30:34;7.10;99.90
28336;DHT22;15592;53.656;7.276;2023-02-15T17:33:03;7.10;99.90
28336;DHT22;15592;53.656;7.276;2023-02-15T17:35:31;7.00;99.90
28336;DHT22;15592;53.656;7.276;2023-02-15T17:38:10;7.00;99.90
28336;DHT22;15592;53.656;7.276;2023-02-15T17:40:40;7.00;99.90
28336;DHT22;15592;53.656;7.276;2023-02-15T17:43:05;7.00;99.90
28336;DHT22;15592;53.656;7.276;2023-02-15T17:45:48;6.90;99.90
28336;DHT22;15592;53.656;7.276;2023-02-15T17:48:25;7.00;99.90
28336;DHT22;15592;53.656;7.276;2023-02-15T17:50:56;7.00;99.90
28336;DHT22;15592;53.656;7.276;2023-02-15T17:53:23;6.90;99.90
28336;DHT22;15592;53.656;7.276;2023-02-15T17:55:50;6.90;99.90
28336;DHT22;15592;53.656;7.276;2023-02-15T17:58:17;6.90;99.90
28336;DHT22;15592;53.656;7.276;2023-02-15T18:00:57;6.90;99.90
28336;DHT22;15592;53.656;7.276;2023-02-15T18:03:47;6.80;99.90
28336;DHT22;15592;53.656;7.276;2023-02-15T18:06:32;6.80;99.90
28336;DHT22;15592;53.656;7.276;2023-02-15T18:09:19;6.70;99.90
28336;DHT22;15592;53.656;7.276;2023-02-15T18:14:52;6.60;99.90
28336;DHT22;15592;53.656;7.276;2023-02-15T18:17:27;6.40;99.90
28336;DHT22;15592;53.656;7.276;2023-02-15T18:19:54;6.40;99.90
28336;DHT22;15592;53.656;7.276;2023-02-15T18:22:20;6.30;99.90
28336;DHT22;15592;53.656;7.276;2023-02-15T18:24:48;6.30;99.90
28336;DHT22;15592;53.656;7.276;2023-02-15T18:27:15;6.30;99.90
28336;DHT22;15592;53.656;7.276;2023-02-15T18:29:41;6.30;99.90
28336;DHT22;15592;53.656;7.276;2023-02-15T18:32:31;6.30;99.90
28336;DHT22;15592;53.656;7.276;2023-02-15T18:34:56;6.30;99.90
28336;DHT22;15592;53.656;7.276;2023-02-15T18:37:24;6.40;99.90
28336;DHT22;15592;53.656;7.276;2023-02-15T18:39:51;6.30;99.90
28336;DHT22;15592;53.656;7.276;2023-02-15T18:44:55;6.30;99.90
28336;DHT22;15592;53.656;7.276;2023-02-15T18:47:21;6.30;99.90
28336;DHT22;15592;53.656;7.276;2023-02-15T18:49:47;6.40;99.90
28336;DHT22;15592;53.656;7.276;2023-02-15T18:52:19;6.40;99.90
28336;DHT22;15592;53.656;7.276;2023-02-15T18:54:46;6.50;99.90
28336;DHT22;15592;53.656;7.276;2023-02-15T18:57:14;6.60;99.90
28336;DHT22;15592;53.656;7.276;2023-02-15T18:59:40;6.60;99.90
28336;DHT22;15592;53.656;7.276;2023-02-15T19:02:13;6.60;99.90
28336;DHT22;15592;53.656;7.276;2023-02-15T19:04:39;6.60;99.90
28336;DHT22;15592;53.656;7.276;2023-02-15T19:07:05;6.60;99.90
28336;DHT22;15592;53.656;7.276;2023-02-15T19:09:31;6.60;99.90
28336;DHT22;15592;53.656;7.276;2023-02-15T19:11:57;6.70;99.90
28336;DHT22;15592;53.656;7.276;2023-02-15T19:14:26;6.80;99.90
28336;DHT22;15592;53.656;7.276;2023-02-15T19:16:52;6.80;99.90
28336;DHT22;15592;53.656;7.276;2023-02-15T19:19:18;6.90;99.90
28336;DHT22;15592;53.656;7.276;2023-02-15T19:21:44;6.90;99.90
28336;DHT22;15592;53.656;7.276;2023-02-15T19:24:36;6.90;99.90
28336;DHT22;15592;53.656;7.276;2023-02-15T19:27:05;7.00;99.90
28336;DHT22;15592;53.656;7.276;2023-02-15T19:29:31;7.00;99.90
28336;DHT22;15592;53.656;7.276;2023-02-15T19:31:56;7.10;99.90
28336;DHT22;15592;53.656;7.276;2023-02-15T19:34:22;7.10;99.90
28336;DHT22;15592;53.656;7.276;2023-02-15T19:36:51;7.10;99.90
28336;DHT22;15592;53.656;7.276;2023-02-15T19:39:29;7.10;99.90
28336;DHT22;15592;53.656;7.276;2023-02-15T19:41:55;7.10;99.90
28336;DHT22;15592;53.656;7.276;2023-02-15T19:44:21;7.10;99.90
28336;DHT22;15592;53.656;7.276;2023-02-15T19:46:47;7.00;99.90